sensor_id;sensor_type;location;lat;lon;timestamp;P1;durP1;ratioP1;P2;durP2;ratioP2
9563;SDS011;4820;50.870;4.702;2023-04-06T00:01:52;12.95;;;9.18;;
9563;SDS011;4820;50.870;4.702;2023-04-06T00:04:18;12.07;;;9.00;;
9563;SDS011;4820;50.870;4.702;2023-04-06T00:06:43;15.18;;;10.15;;
9563;SDS011;4820;50.870;4.702;2023-04-06T00:09:09;18.30;;;10.30;;
9563;SDS011;4820;50.870;4.702;2023-04-06T00:11:35;14.13;;;10.43;;
9563;SDS011;4820;50.870;4.702;2023-04-06T00:14:00;11.80;;;8.82;;
9563;SDS011;4820;50.870;4.702;2023-04-06T00:16:27;11.48;;;9.30;;
9563;SDS011;4820;50.870;4.702;2023-04-06T00:18:53;11.50;;;9.23;;
9563;SDS011;4820;50.870;4.702;2023-04-06T00:21:18;13.85;;;9.75;;
9563;SDS011;4820;50.870;4.702;2023-04-06T00:23:44;12.02;;;10.13;;
9563;SDS011;4820;50.870;4.702;2023-04-06T00:26:13;15.60;;;9.85;;
9563;SDS011;4820;50.870;4.702;2023-04-06T00:28:39;14.27;;;10.30;;
9563;SDS011;4820;50.870;4.702;2023-04-06T00:31:04;11.32;;;9.48;;
9563;SDS011;4820;50.870;4.702;2023-04-06T00:33:30;13.88;;;10.13;;
9563;SDS011;4820;50.870;4.702;2023-04-06T00:35:56;11.38;;;8.90;;
9563;SDS011;4820;50.870;4.702;2023-04-06T00:38:21;14.40;;;10.50;;
9563;SDS011;4820;50.870;4.702;2023-04-06T00:40:48;12.73;;;9.43;;
9563;SDS011;4820;50.870;4.702;2023-04-06T00:43:14;13.43;;;9.73;;
9563;SDS011;4820;50.870;4.702;2023-04-06T00:45:41;14.13;;;9.82;;
9563;SDS011;4820;50.870;4.702;2023-04-06T00:48:07;12.73;;;9.43;;
9563;SDS011;4820;50.870;4.702;2023-04-06T00:50:34;12.63;;;9.65;;
9563;SDS011;4820;50.870;4.702;2023-04-06T00:53:00;13.77;;;10.30;;
9563;SDS011;4820;50.870;4.702;2023-04-06T00:55:27;12.70;;;9.88;;
9563;SDS011;4820;50.870;4.702;2023-04-06T00:57:54;13.65;;;10.20;;
9563;SDS011;4820;50.870;4.702;2023-04-06T01:00:23;14.38;;;9.90;;
9563;SDS011;4820;50.870;4.702;2023-04-06T01:02:49;14.18;;;9.77;;
9563;SDS011;4820;50.870;4.702;2023-04-06T01:05:15;14.43;;;10.75;;
9563;SDS011;4820;50.870;4.702;2023-04-06T01:07:41;13.23;;;9.80;;
9563;SDS011;4820;50.870;4.702;2023-04-06T01:10:06;14.95;;;10.82;;
9563;SDS011;4820;50.870;4.702;2023-04-06T01:12:32;14.43;;;10.25;;
9563;SDS011;4820;50.870;4.702;2023-04-06T01:14:58;12.35;;;10.00;;
9563;SDS011;4820;50.870;4.702;2023-04-06T01:17:25;13.40;;;10.60;;
9563;SDS011;4820;50.870;4.702;2023-04-06T01:19:51;15.55;;;10.10;;
9563;SDS011;4820;50.870;4.702;2023-04-06T01:22:18;14.48;;;10.90;;
9563;SDS011;4820;50.870;4.702;2023-04-06T01:24:45;13.45;;;10.65;;
9563;SDS011;4820;50.870;4.702;2023-04-06T01:27:12;14.85;;;10.27;;
9563;SDS011;4820;50.870;4.702;2023-04-06T01:29:38;12.40;;;10.48;;
9563;SDS011;4820;50.870;4.702;2023-04-06T01:32:08;16.02;;;10.68;;
9563;SDS011;4820;50.870;4.702;2023-04-06T01:34:34;13.38;;;10.93;;
9563;SDS011;4820;50.870;4.702;2023-04-06T01:37:01;11.75;;;10.10;;
9563;SDS011;4820;50.870;4.702;2023-04-06T01:39:27;12.32;;;10.00;;
9563;SDS011;4820;50.870;4.702;2023-04-06T01:41:52;13.05;;;10.13;;
9563;SDS011;4820;50.870;4.702;2023-04-06T01:44:19;12.20;;;9.68;;
9563;SDS011;4820;50.870;4.702;2023-04-06T01:46:45;12.55;;;10.43;;
9563;SDS011;4820;50.870;4.702;2023-04-06T01:49:12;12.27;;;9.90;;
9563;SDS011;4820;50.870;4.702;2023-04-06T01:51:38;12.88;;;10.10;;
9563;SDS011;4820;50.870;4.702;2023-04-06T01:54:04;12.43;;;9.70;;
9563;SDS011;4820;50.870;4.702;2023-04-06T01:56:30;12.73;;;10.20;;
9563;SDS011;4820;50.870;4.702;2023-04-06T01:58:56;12.27;;;10.20;;
9563;SDS011;4820;50.870;4.702;2023-04-06T02:01:22;12.32;;;10.43;;
9563;SDS011;4820;50.870;4.702;2023-04-06T02:03:47;12.93;;;10.02;;
9563;SDS011;4820;50.870;4.702;2023-04-06T02:06:13;12.30;;;9.82;;
9563;SDS011;4820;50.870;4.702;2023-04-06T02:08:39;12.77;;;9.95;;
9563;SDS011;4820;50.870;4.702;2023-04-06T02:11:05;14.57;;;10.85;;
9563;SDS011;4820;50.870;4.702;2023-04-06T02:13:32;13.27;;;10.13;;
9563;SDS011;4820;50.870;4.702;2023-04-06T02:15:57;12.80;;;10.43;;
9563;SDS011;4820;50.870;4.702;2023-04-06T02:18:23;10.93;;;9.23;;
9563;SDS011;4820;50.870;4.702;2023-04-06T02:20:50;13.40;;;10.40;;
9563;SDS011;4820;50.870;4.702;2023-04-06T02:23:17;13.52;;;10.02;;
9563;SDS011;4820;50.870;4.702;2023-04-06T02:25:43;11.50;;;10.02;;
9563;SDS011;4820;50.870;4.702;2023-04-06T02:28:08;12.05;;;9.13;;
9563;SDS011;4820;50.870;4.702;2023-04-06T02:30:34;15.00;;;10.63;;
9563;SDS011;4820;50.870;4.702;2023-04-06T02:33:00;13.32;;;10.82;;
9563;SDS011;4820;50.870;4.702;2023-04-06T02:35:27;13.57;;;10.15;;
9563;SDS011;4820;50.870;4.702;2023-04-06T02:37:53;13.25;;;10.82;;
9563;SDS011;4820;50.870;4.702;2023-04-06T02:40:19;13.02;;;10.48;;
9563;SDS011;4820;50.870;4.702;2023-04-06T02:42:45;12.48;;;9.57;;
9563;SDS011;4820;50.870;4.702;2023-04-06T02:45:11;13.68;;;10.32;;
9563;SDS011;4820;50.870;4.702;2023-04-06T02:47:37;13.57;;;10.52;;
9563;SDS011;4820;50.870;4.702;2023-04-06T02:50:03;13.63;;;10.77;;
9563;SDS011;4820;50.870;4.702;2023-04-06T02:52:31;13.18;;;10.70;;
9563;SDS011;4820;50.870;4.702;2023-04-06T02:54:57;13.07;;;10.40;;
9563;SDS011;4820;50.870;4.702;2023-04-06T02:57:23;14.20;;;11.02;;
9563;SDS011;4820;50.870;4.702;2023-04-06T02:59:48;13.02;;;10.68;;
9563;SDS011;4820;50.870;4.702;2023-04-06T03:02:14;12.95;;;10.27;;
9563;SDS011;4820;50.870;4.702;2023-04-06T03:04:40;13.77;;;10.45;;
9563;SDS011;4820;50.870;4.702;2023-04-06T03:07:05;12.57;;;10.30;;
9563;SDS011;4820;50.870;4.702;2023-04-06T03:09:31;13.98;;;10.50;;
9563;SDS011;4820;50.870;4.702;2023-04-06T03:11:57;13.05;;;9.75;;
9563;SDS011;4820;50.870;4.702;2023-04-06T03:14:23;13.10;;;10.40;;
9563;SDS011;4820;50.870;4.702;2023-04-06T03:16:50;11.55;;;9.52;;
9563;SDS011;4820;50.870;4.702;2023-04-06T03:19:16;11.77;;;9.93;;
9563;SDS011;4820;50.870;4.702;2023-04-06T03:21:43;12.38;;;10.13;;
9563;SDS011;4820;50.870;4.702;2023-04-06T03:24:09;12.95;;;10.15;;
9563;SDS011;4820;50.870;4.702;2023-04-06T03:26:36;10.98;;;9.70;;
9563;SDS011;4820;50.870;4.702;2023-04-06T03:29:03;11.68;;;9.82;;
9563;SDS011;4820;50.870;4.702;2023-04-06T03:31:30;11.23;;;10.07;;
9563;SDS011;4820;50.870;4.702;2023-04-06T03:33:55;12.10;;;10.13;;
9563;SDS011;4820;50.870;4.702;2023-04-06T03:36:21;13.38;;;10.65;;
9563;SDS011;4820;50.870;4.702;2023-04-06T03:38:47;12.68;;;10.10;;
9563;SDS011;4820;50.870;4.702;2023-04-06T03:41:13;14.73;;;10.55;;
9563;SDS011;4820;50.870;4.702;2023-04-06T03:43:38;13.93;;;11.02;;
9563;SDS011;4820;50.870;4.702;2023-04-06T03:46:04;13.35;;;10.77;;
9563;SDS011;4820;50.870;4.702;2023-04-06T03:48:30;11.85;;;9.75;;
9563;SDS011;4820;50.870;4.702;2023-04-06T03:50:55;14.07;;;11.18;;
9563;SDS011;4820;50.870;4.702;2023-04-06T03:53:21;12.82;;;10.13;;
9563;SDS011;4820;50.870;4.702;2023-04-06T03:55:47;13.73;;;11.07;;
9563;SDS011;4820;50.870;4.702;2023-04-06T03:58:12;12.50;;;10.45;;
9563;SDS011;4820;50.870;4.702;2023-04-06T04:00:38;13.98;;;10.70;;
9563;SDS011;4820;50.870;4.702;2023-04-06T04:03:04;13.45;;;10.40;;
9563;SDS011;4820;50.870;4.702;2023-04-06T04:05:30;14.07;;;10.45;;
9563;SDS011;4820;50.870;4.702;2023-04-06T04:07:55;10.70;;;9.25;;
9563;SDS011;4820;50.870;4.702;2023-04-06T04:10:21;13.20;;;10.38;;
9563;SDS011;4820;50.870;4.702;2023-04-06T04:12:47;11.88;;;10.10;;
9563;SDS011;4820;50.870;4.702;2023-04-06T04:15:12;13.40;;;10.18;;
9563;SDS011;4820;50.870;4.702;2023-04-06T04:17:38;13.75;;;9.98;;
9563;SDS011;4820;50.870;4.702;2023-04-06T04:20:04;11.88;;;10.02;;
9563;SDS011;4820;50.870;4.702;2023-04-06T04:22:31;13.18;;;10.45;;
9563;SDS011;4820;50.870;4.702;2023-04-06T04:24:57;14.90;;;10.18;;
9563;SDS011;4820;50.870;4.702;2023-04-06T04:27:22;11.45;;;9.73;;
9563;SDS011;4820;50.870;4.702;2023-04-06T04:29:48;14.40;;;10.50;;
9563;SDS011;4820;50.870;4.702;2023-04-06T04:32:14;12.50;;;9.95;;
9563;SDS011;4820;50.870;4.702;2023-04-06T04:34:40;13.43;;;10.07;;
9563;SDS011;4820;50.870;4.702;2023-04-06T04:37:07;11.77;;;10.10;;
9563;SDS011;4820;50.870;4.702;2023-04-06T04:39:34;12.65;;;10.82;;
9563;SDS011;4820;50.870;4.702;2023-04-06T04:41:59;13.23;;;10.40;;
9563;SDS011;4820;50.870;4.702;2023-04-06T04:44:25;14.35;;;10.90;;
9563;SDS011;4820;50.870;4.702;2023-04-06T04:46:51;12.68;;;10.05;;
9563;SDS011;4820;50.870;4.702;2023-04-06T04:49:17;12.38;;;10.05;;
9563;SDS011;4820;50.870;4.702;2023-04-06T04:51:43;11.82;;;10.50;;
9563;SDS011;4820;50.870;4.702;2023-04-06T04:54:09;13.52;;;10.57;;
9563;SDS011;4820;50.870;4.702;2023-04-06T04:56:35;13.48;;;10.00;;
9563;SDS011;4820;50.870;4.702;2023-04-06T04:59:01;14.25;;;10.68;;
9563;SDS011;4820;50.870;4.702;2023-04-06T05:01:26;14.23;;;10.50;;
9563;SDS011;4820;50.870;4.702;2023-04-06T05:03:52;13.75;;;10.50;;
9563;SDS011;4820;50.870;4.702;2023-04-06T05:06:18;13.35;;;10.35;;
9563;SDS011;4820;50.870;4.702;2023-04-06T05:08:44;11.65;;;10.07;;
9563;SDS011;4820;50.870;4.702;2023-04-06T05:11:11;13.68;;;10.50;;
9563;SDS011;4820;50.870;4.702;2023-04-06T05:13:36;14.52;;;11.00;;
9563;SDS011;4820;50.870;4.702;2023-04-06T05:16:02;13.85;;;10.88;;
9563;SDS011;4820;50.870;4.702;2023-04-06T05:18:28;12.43;;;10.52;;
9563;SDS011;4820;50.870;4.702;2023-04-06T05:20:53;12.30;;;11.00;;
9563;SDS011;4820;50.870;4.702;2023-04-06T05:23:19;13.02;;;11.15;;
9563;SDS011;4820;50.870;4.702;2023-04-06T05:25:45;11.85;;;9.85;;
9563;SDS011;4820;50.870;4.702;2023-04-06T05:28:11;13.65;;;11.55;;
9563;SDS011;4820;50.870;4.702;2023-04-06T05:30:39;13.32;;;11.00;;
9563;SDS011;4820;50.870;4.702;2023-04-06T05:33:05;12.88;;;10.98;;
9563;SDS011;4820;50.870;4.702;2023-04-06T05:35:31;14.80;;;11.43;;
9563;SDS011;4820;50.870;4.702;2023-04-06T05:37:56;12.95;;;10.50;;
9563;SDS011;4820;50.870;4.702;2023-04-06T05:40:22;15.55;;;11.30;;
9563;SDS011;4820;50.870;4.702;2023-04-06T05:42:48;13.23;;;10.45;;
9563;SDS011;4820;50.870;4.702;2023-04-06T05:45:16;11.73;;;10.30;;
9563;SDS011;4820;50.870;4.702;2023-04-06T05:47:43;12.13;;;10.70;;
9563;SDS011;4820;50.870;4.702;2023-04-06T05:50:13;13.30;;;10.73;;
9563;SDS011;4820;50.870;4.702;2023-04-06T05:52:39;14.30;;;10.52;;
9563;SDS011;4820;50.870;4.702;2023-04-06T05:55:08;14.77;;;10.77;;
9563;SDS011;4820;50.870;4.702;2023-04-06T05:57:34;13.93;;;10.45;;
9563;SDS011;4820;50.870;4.702;2023-04-06T06:00:01;13.32;;;10.55;;
9563;SDS011;4820;50.870;4.702;2023-04-06T06:02:30;14.25;;;10.80;;
9563;SDS011;4820;50.870;4.702;2023-04-06T06:04:58;12.57;;;10.52;;
9563;SDS011;4820;50.870;4.702;2023-04-06T06:07:24;13.82;;;10.25;;
9563;SDS011;4820;50.870;4.702;2023-04-06T06:09:50;13.00;;;10.55;;
9563;SDS011;4820;50.870;4.702;2023-04-06T06:12:16;14.25;;;11.00;;
9563;SDS011;4820;50.870;4.702;2023-04-06T06:14:41;14.10;;;10.65;;
9563;SDS011;4820;50.870;4.702;2023-04-06T06:17:07;14.23;;;11.05;;
9563;SDS011;4820;50.870;4.702;2023-04-06T06:19:33;13.90;;;11.27;;
9563;SDS011;4820;50.870;4.702;2023-04-06T06:22:00;12.38;;;10.27;;
9563;SDS011;4820;50.870;4.702;2023-04-06T06:24:29;12.65;;;10.73;;
9563;SDS011;4820;50.870;4.702;2023-04-06T06:26:57;14.55;;;10.95;;
9563;SDS011;4820;50.870;4.702;2023-04-06T06:29:23;13.25;;;10.57;;
9563;SDS011;4820;50.870;4.702;2023-04-06T06:31:49;13.05;;;10.27;;
9563;SDS011;4820;50.870;4.702;2023-04-06T06:34:15;14.82;;;11.40;;
9563;SDS011;4820;50.870;4.702;2023-04-06T06:36:41;16.48;;;10.88;;
9563;SDS011;4820;50.870;4.702;2023-04-06T06:39:06;14.48;;;11.02;;
9563;SDS011;4820;50.870;4.702;2023-04-06T06:41:32;13.13;;;11.23;;
9563;SDS011;4820;50.870;4.702;2023-04-06T06:43:58;13.23;;;10.73;;
9563;SDS011;4820;50.870;4.702;2023-04-06T06:46:23;13.43;;;10.50;;
9563;SDS011;4820;50.870;4.702;2023-04-06T06:48:50;15.98;;;10.98;;
9563;SDS011;4820;50.870;4.702;2023-04-06T06:51:16;15.50;;;10.55;;
9563;SDS011;4820;50.870;4.702;2023-04-06T06:53:41;15.18;;;10.60;;
9563;SDS011;4820;50.870;4.702;2023-04-06T06:56:07;13.38;;;10.55;;
9563;SDS011;4820;50.870;4.702;2023-04-06T06:58:34;13.95;;;10.18;;
9563;SDS011;4820;50.870;4.702;2023-04-06T07:01:00;15.13;;;10.70;;
9563;SDS011;4820;50.870;4.702;2023-04-06T07:03:25;13.10;;;10.25;;
9563;SDS011;4820;50.870;4.702;2023-04-06T07:05:51;16.52;;;10.88;;
9563;SDS011;4820;50.870;4.702;2023-04-06T07:08:21;17.52;;;10.38;;
9563;SDS011;4820;50.870;4.702;2023-04-06T07:10:50;15.35;;;10.48;;
9563;SDS011;4820;50.870;4.702;2023-04-06T07:13:23;14.52;;;10.63;;
9563;SDS011;4820;50.870;4.702;2023-04-06T07:15:50;14.63;;;10.30;;
9563;SDS011;4820;50.870;4.702;2023-04-06T07:18:16;16.70;;;11.00;;
9563;SDS011;4820;50.870;4.702;2023-04-06T07:20:43;13.48;;;10.95;;
9563;SDS011;4820;50.870;4.702;2023-04-06T07:23:09;14.48;;;11.05;;
9563;SDS011;4820;50.870;4.702;2023-04-06T07:25:34;14.32;;;11.25;;
9563;SDS011;4820;50.870;4.702;2023-04-06T07:28:01;15.35;;;11.40;;
9563;SDS011;4820;50.870;4.702;2023-04-06T07:30:27;16.48;;;10.90;;
9563;SDS011;4820;50.870;4.702;2023-04-06T07:32:54;16.00;;;11.68;;
9563;SDS011;4820;50.870;4.702;2023-04-06T07:35:24;13.77;;;10.70;;
9563;SDS011;4820;50.870;4.702;2023-04-06T07:37:52;13.15;;;11.30;;
9563;SDS011;4820;50.870;4.702;2023-04-06T07:40:18;14.55;;;11.18;;
9563;SDS011;4820;50.870;4.702;2023-04-06T07:42:44;14.88;;;11.65;;
9563;SDS011;4820;50.870;4.702;2023-04-06T07:45:10;15.27;;;11.20;;
9563;SDS011;4820;50.870;4.702;2023-04-06T07:47:36;12.90;;;10.82;;
9563;SDS011;4820;50.870;4.702;2023-04-06T07:50:02;14.02;;;10.70;;
9563;SDS011;4820;50.870;4.702;2023-04-06T07:52:28;16.38;;;12.60;;
9563;SDS011;4820;50.870;4.702;2023-04-06T07:54:54;14.60;;;11.35;;
9563;SDS011;4820;50.870;4.702;2023-04-06T07:57:19;15.45;;;11.68;;
9563;SDS011;4820;50.870;4.702;2023-04-06T07:59:45;14.20;;;11.32;;
9563;SDS011;4820;50.870;4.702;2023-04-06T08:02:12;14.00;;;11.70;;
9563;SDS011;4820;50.870;4.702;2023-04-06T08:04:37;16.00;;;11.65;;
9563;SDS011;4820;50.870;4.702;2023-04-06T08:07:03;15.43;;;11.48;;
9563;SDS011;4820;50.870;4.702;2023-04-06T08:09:30;16.63;;;11.10;;
9563;SDS011;4820;50.870;4.702;2023-04-06T08:11:56;14.43;;;11.75;;
9563;SDS011;4820;50.870;4.702;2023-04-06T08:14:22;14.25;;;11.45;;
9563;SDS011;4820;50.870;4.702;2023-04-06T08:16:49;12.07;;;10.13;;
9563;SDS011;4820;50.870;4.702;2023-04-06T08:19:14;13.07;;;10.45;;
9563;SDS011;4820;50.870;4.702;2023-04-06T08:21:42;13.88;;;10.90;;
9563;SDS011;4820;50.870;4.702;2023-04-06T08:24:09;13.43;;;10.65;;
9563;SDS011;4820;50.870;4.702;2023-04-06T08:26:35;13.85;;;9.98;;
9563;SDS011;4820;50.870;4.702;2023-04-06T08:29:00;13.32;;;10.05;;
9563;SDS011;4820;50.870;4.702;2023-04-06T08:31:26;12.13;;;9.50;;
9563;SDS011;4820;50.870;4.702;2023-04-06T08:33:52;14.90;;;9.98;;
9563;SDS011;4820;50.870;4.702;2023-04-06T08:36:18;12.07;;;10.00;;
9563;SDS011;4820;50.870;4.702;2023-04-06T08:38:48;12.43;;;10.13;;
9563;SDS011;4820;50.870;4.702;2023-04-06T08:41:16;12.10;;;9.90;;
9563;SDS011;4820;50.870;4.702;2023-04-06T08:43:43;11.07;;;9.75;;
9563;SDS011;4820;50.870;4.702;2023-04-06T08:46:13;10.95;;;9.20;;
9563;SDS011;4820;50.870;4.702;2023-04-06T08:48:40;11.70;;;9.68;;
9563;SDS011;4820;50.870;4.702;2023-04-06T08:51:10;13.05;;;9.95;;
9563;SDS011;4820;50.870;4.702;2023-04-06T08:53:36;11.85;;;9.90;;
9563;SDS011;4820;50.870;4.702;2023-04-06T08:56:04;14.85;;;11.10;;
9563;SDS011;4820;50.870;4.702;2023-04-06T08:58:37;12.00;;;9.30;;
9563;SDS011;4820;50.870;4.702;2023-04-06T09:01:08;10.57;;;8.93;;
9563;SDS011;4820;50.870;4.702;2023-04-06T09:03:39;12.13;;;8.57;;
9563;SDS011;4820;50.870;4.702;2023-04-06T09:06:06;11.93;;;8.63;;
9563;SDS011;4820;50.870;4.702;2023-04-06T09:08:34;11.10;;;8.70;;
9563;SDS011;4820;50.870;4.702;2023-04-06T09:11:02;11.07;;;9.25;;
9563;SDS011;4820;50.870;4.702;2023-04-06T09:13:29;11.73;;;9.27;;
9563;SDS011;4820;50.870;4.702;2023-04-06T09:15:59;11.85;;;9.45;;
9563;SDS011;4820;50.870;4.702;2023-04-06T09:18:32;12.48;;;9.35;;
9563;SDS011;4820;50.870;4.702;2023-04-06T09:20:59;12.25;;;9.27;;
9563;SDS011;4820;50.870;4.702;2023-04-06T09:23:26;12.10;;;9.30;;
9563;SDS011;4820;50.870;4.702;2023-04-06T09:26:02;10.98;;;9.40;;
9563;SDS011;4820;50.870;4.702;2023-04-06T09:28:53;11.52;;;9.65;;
9563;SDS011;4820;50.870;4.702;2023-04-06T09:31:29;11.68;;;9.50;;
9563;SDS011;4820;50.870;4.702;2023-04-06T09:33:57;11.85;;;9.77;;
9563;SDS011;4820;50.870;4.702;2023-04-06T09:36:34;10.73;;;9.10;;
9563;SDS011;4820;50.870;4.702;2023-04-06T09:39:03;12.38;;;10.35;;
9563;SDS011;4820;50.870;4.702;2023-04-06T09:41:37;11.93;;;9.80;;
9563;SDS011;4820;50.870;4.702;2023-04-06T09:44:06;13.65;;;10.30;;
9563;SDS011;4820;50.870;4.702;2023-04-06T09:46:44;13.65;;;10.40;;
9563;SDS011;4820;50.870;4.702;2023-04-06T09:49:11;14.10;;;10.15;;
9563;SDS011;4820;50.870;4.702;2023-04-06T09:51:39;11.73;;;10.38;;
9563;SDS011;4820;50.870;4.702;2023-04-06T09:54:11;12.57;;;10.05;;
9563;SDS011;4820;50.870;4.702;2023-04-06T10:08:10;12.65;;;10.15;;
9563;SDS011;4820;50.870;4.702;2023-04-06T10:10:37;11.38;;;10.15;;
9563;SDS011;4820;50.870;4.702;2023-04-06T10:13:06;11.50;;;9.90;;
9563;SDS011;4820;50.870;4.702;2023-04-06T10:15:34;10.50;;;8.85;;
9563;SDS011;4820;50.870;4.702;2023-04-06T10:18:02;11.80;;;9.68;;
9563;SDS011;4820;50.870;4.702;2023-04-06T10:26:04;10.30;;;9.15;;
9563;SDS011;4820;50.870;4.702;2023-04-06T10:28:32;11.70;;;9.07;;
9563;SDS011;4820;50.870;4.702;2023-04-06T10:31:01;11.20;;;9.45;;
9563;SDS011;4820;50.870;4.702;2023-04-06T10:33:29;11.05;;;9.00;;
9563;SDS011;4820;50.870;4.702;2023-04-06T10:35:55;11.00;;;8.93;;
9563;SDS011;4820;50.870;4.702;2023-04-06T10:38:32;10.13;;;8.27;;
9563;SDS011;4820;50.870;4.702;2023-04-06T10:41:06;11.15;;;8.80;;
9563;SDS011;4820;50.870;4.702;2023-04-06T10:43:34;10.00;;;8.30;;
9563;SDS011;4820;50.870;4.702;2023-04-06T10:46:04;9.70;;;8.70;;
9563;SDS011;4820;50.870;4.702;2023-04-06T10:51:12;9.60;;;8.35;;
9563;SDS011;4820;50.870;4.702;2023-04-06T10:53:41;9.05;;;8.07;;
9563;SDS011;4820;50.870;4.702;2023-04-06T10:56:09;10.07;;;8.75;;
9563;SDS011;4820;50.870;4.702;2023-04-06T10:58:43;10.15;;;8.32;;
9563;SDS011;4820;50.870;4.702;2023-04-06T11:01:21;11.00;;;9.48;;
9563;SDS011;4820;50.870;4.702;2023-04-06T11:03:50;11.30;;;9.13;;
9563;SDS011;4820;50.870;4.702;2023-04-06T11:06:19;10.60;;;9.10;;
9563;SDS011;4820;50.870;4.702;2023-04-06T11:08:52;11.07;;;9.02;;
9563;SDS011;4820;50.870;4.702;2023-04-06T11:11:19;9.30;;;8.30;;
9563;SDS011;4820;50.870;4.702;2023-04-06T11:16:16;11.77;;;9.23;;
9563;SDS011;4820;50.870;4.702;2023-04-06T11:21:36;10.82;;;9.35;;
9563;SDS011;4820;50.870;4.702;2023-04-06T11:26:49;9.63;;;8.50;;
9563;SDS011;4820;50.870;4.702;2023-04-06T11:29:29;10.05;;;8.70;;
9563;SDS011;4820;50.870;4.702;2023-04-06T11:32:00;9.48;;;8.40;;
9563;SDS011;4820;50.870;4.702;2023-04-06T11:34:29;10.13;;;9.10;;
9563;SDS011;4820;50.870;4.702;2023-04-06T11:36:58;11.43;;;8.90;;
9563;SDS011;4820;50.870;4.702;2023-04-06T11:39:26;12.35;;;9.75;;
9563;SDS011;4820;50.870;4.702;2023-04-06T11:41:54;10.15;;;8.85;;
9563;SDS011;4820;50.870;4.702;2023-04-06T11:47:04;9.80;;;8.55;;
9563;SDS011;4820;50.870;4.702;2023-04-06T11:49:39;9.10;;;8.20;;
9563;SDS011;4820;50.870;4.702;2023-04-06T11:52:19;9.27;;;8.38;;
9563;SDS011;4820;50.870;4.702;2023-04-06T11:54:49;9.57;;;8.57;;
9563;SDS011;4820;50.870;4.702;2023-04-06T11:57:17;10.13;;;8.52;;
9563;SDS011;4820;50.870;4.702;2023-04-06T11:59:44;9.77;;;8.23;;
9563;SDS011;4820;50.870;4.702;2023-04-06T12:02:10;8.55;;;7.70;;
9563;SDS011;4820;50.870;4.702;2023-04-06T12:04:37;9.25;;;8.00;;
9563;SDS011;4820;50.870;4.702;2023-04-06T12:07:03;9.50;;;8.38;;
9563;SDS011;4820;50.870;4.702;2023-04-06T12:09:29;11.10;;;9.00;;
9563;SDS011;4820;50.870;4.702;2023-04-06T12:11:56;9.85;;;8.73;;
9563;SDS011;4820;50.870;4.702;2023-04-06T12:14:21;8.75;;;7.72;;
9563;SDS011;4820;50.870;4.702;2023-04-06T12:16:47;9.85;;;8.25;;
9563;SDS011;4820;50.870;4.702;2023-04-06T12:19:15;10.75;;;8.70;;
9563;SDS011;4820;50.870;4.702;2023-04-06T12:21:41;9.13;;;7.97;;
9563;SDS011;4820;50.870;4.702;2023-04-06T12:24:08;9.52;;;7.60;;
9563;SDS011;4820;50.870;4.702;2023-04-06T12:26:34;9.18;;;7.38;;
9563;SDS011;4820;50.870;4.702;2023-04-06T12:29:01;10.48;;;8.55;;
9563;SDS011;4820;50.870;4.702;2023-04-06T12:31:32;8.77;;;7.88;;
9563;SDS011;4820;50.870;4.702;2023-04-06T12:33:59;12.30;;;7.88;;
9563;SDS011;4820;50.870;4.702;2023-04-06T12:36:27;9.43;;;8.05;;
9563;SDS011;4820;50.870;4.702;2023-04-06T12:38:54;9.93;;;7.93;;
9563;SDS011;4820;50.870;4.702;2023-04-06T12:41:20;9.63;;;8.20;;
9563;SDS011;4820;50.870;4.702;2023-04-06T12:43:46;9.85;;;8.15;;
9563;SDS011;4820;50.870;4.702;2023-04-06T12:46:13;9.02;;;7.97;;
9563;SDS011;4820;50.870;4.702;2023-04-06T12:48:38;9.55;;;8.30;;
9563;SDS011;4820;50.870;4.702;2023-04-06T12:51:05;12.88;;;9.00;;
9563;SDS011;4820;50.870;4.702;2023-04-06T12:53:32;9.52;;;8.38;;
9563;SDS011;4820;50.870;4.702;2023-04-06T12:55:59;9.70;;;8.48;;
9563;SDS011;4820;50.870;4.702;2023-04-06T12:58:25;9.98;;;8.70;;
9563;SDS011;4820;50.870;4.702;2023-04-06T13:00:54;9.20;;;8.30;;
9563;SDS011;4820;50.870;4.702;2023-04-06T13:03:23;11.18;;;9.27;;
9563;SDS011;4820;50.870;4.702;2023-04-06T13:05:50;9.95;;;8.88;;
9563;SDS011;4820;50.870;4.702;2023-04-06T13:08:18;10.07;;;9.07;;
9563;SDS011;4820;50.870;4.702;2023-04-06T13:10:49;10.55;;;9.07;;
9563;SDS011;4820;50.870;4.702;2023-04-06T13:13:17;10.18;;;8.63;;
9563;SDS011;4820;50.870;4.702;2023-04-06T13:15:46;10.45;;;9.02;;
9563;SDS011;4820;50.870;4.702;2023-04-06T13:18:11;11.25;;;9.57;;
9563;SDS011;4820;50.870;4.702;2023-04-06T13:20:39;10.77;;;8.82;;
9563;SDS011;4820;50.870;4.702;2023-04-06T13:23:05;11.18;;;9.85;;
9563;SDS011;4820;50.870;4.702;2023-04-06T13:25:30;11.95;;;8.80;;
9563;SDS011;4820;50.870;4.702;2023-04-06T13:27:57;11.40;;;9.75;;
9563;SDS011;4820;50.870;4.702;2023-04-06T13:30:23;10.18;;;9.07;;
9563;SDS011;4820;50.870;4.702;2023-04-06T13:32:49;11.48;;;10.25;;
9563;SDS011;4820;50.870;4.702;2023-04-06T13:35:15;11.60;;;10.30;;
9563;SDS011;4820;50.870;4.702;2023-04-06T13:37:42;11.10;;;9.70;;
9563;SDS011;4820;50.870;4.702;2023-04-06T13:40:07;11.40;;;10.23;;
9563;SDS011;4820;50.870;4.702;2023-04-06T13:42:34;11.63;;;10.43;;
9563;SDS011;4820;50.870;4.702;2023-04-06T13:45:00;11.38;;;10.18;;
9563;SDS011;4820;50.870;4.702;2023-04-06T13:47:26;12.30;;;11.00;;
9563;SDS011;4820;50.870;4.702;2023-04-06T13:49:52;12.90;;;11.27;;
9563;SDS011;4820;50.870;4.702;2023-04-06T13:52:21;11.75;;;10.55;;
9563;SDS011;4820;50.870;4.702;2023-04-06T13:54:48;11.93;;;10.32;;
9563;SDS011;4820;50.870;4.702;2023-04-06T13:57:13;12.00;;;10.80;;
9563;SDS011;4820;50.870;4.702;2023-04-06T13:59:39;11.60;;;10.40;;
9563;SDS011;4820;50.870;4.702;2023-04-06T14:02:06;11.50;;;10.30;;
9563;SDS011;4820;50.870;4.702;2023-04-06T14:04:34;13.45;;;11.35;;
9563;SDS011;4820;50.870;4.702;2023-04-06T14:07:00;15.52;;;10.98;;
9563;SDS011;4820;50.870;4.702;2023-04-06T14:09:27;14.27;;;12.23;;
9563;SDS011;4820;50.870;4.702;2023-04-06T14:11:54;14.55;;;11.57;;
9563;SDS011;4820;50.870;4.702;2023-04-06T14:14:20;13.45;;;10.82;;
9563;SDS011;4820;50.870;4.702;2023-04-06T14:16:46;15.65;;;11.70;;
9563;SDS011;4820;50.870;4.702;2023-04-06T14:19:15;14.10;;;12.18;;
9563;SDS011;4820;50.870;4.702;2023-04-06T14:21:42;12.55;;;10.77;;
9563;SDS011;4820;50.870;4.702;2023-04-06T14:24:12;12.88;;;11.57;;
9563;SDS011;4820;50.870;4.702;2023-04-06T14:26:38;14.52;;;10.85;;
9563;SDS011;4820;50.870;4.702;2023-04-06T14:29:05;12.82;;;10.52;;
9563;SDS011;4820;50.870;4.702;2023-04-06T14:31:31;13.95;;;11.45;;
9563;SDS011;4820;50.870;4.702;2023-04-06T14:33:57;12.98;;;11.68;;
9563;SDS011;4820;50.870;4.702;2023-04-06T14:36:23;13.00;;;11.20;;
9563;SDS011;4820;50.870;4.702;2023-04-06T14:38:52;12.45;;;11.18;;
9563;SDS011;4820;50.870;4.702;2023-04-06T14:41:18;12.63;;;11.32;;
9563;SDS011;4820;50.870;4.702;2023-04-06T14:43:45;13.18;;;11.57;;
9563;SDS011;4820;50.870;4.702;2023-04-06T14:46:13;12.68;;;11.35;;
9563;SDS011;4820;50.870;4.702;2023-04-06T14:48:39;11.90;;;10.63;;
9563;SDS011;4820;50.870;4.702;2023-04-06T14:51:05;12.25;;;10.95;;
9563;SDS011;4820;50.870;4.702;2023-04-06T14:53:31;12.13;;;10.95;;
9563;SDS011;4820;50.870;4.702;2023-04-06T14:55:57;13.52;;;12.13;;
9563;SDS011;4820;50.870;4.702;2023-04-06T14:58:24;13.10;;;11.80;;
9563;SDS011;4820;50.870;4.702;2023-04-06T15:00:55;14.02;;;12.40;;
9563;SDS011;4820;50.870;4.702;2023-04-06T15:03:23;13.27;;;11.93;;
9563;SDS011;4820;50.870;4.702;2023-04-06T15:05:51;12.85;;;11.60;;
9563;SDS011;4820;50.870;4.702;2023-04-06T15:08:17;12.90;;;11.57;;
9563;SDS011;4820;50.870;4.702;2023-04-06T15:10:46;13.38;;;11.30;;
9563;SDS011;4820;50.870;4.702;2023-04-06T15:13:12;12.85;;;11.18;;
9563;SDS011;4820;50.870;4.702;2023-04-06T15:15:37;12.90;;;11.57;;
9563;SDS011;4820;50.870;4.702;2023-04-06T15:18:04;14.55;;;12.20;;
9563;SDS011;4820;50.870;4.702;2023-04-06T15:20:30;13.90;;;12.45;;
9563;SDS011;4820;50.870;4.702;2023-04-06T15:22:55;16.05;;;13.50;;